Milwaukee, Wisconsin
Traffic Map
Current Weather Conditions
Milwaukee, Wisconsin
Overcast
Overcast
73°
Feels Like: 73°
Wind Chill: 73° Ceiling: 1600
Heat Index: 73° Visibility: 10mi
Dew Point: 67° Wind: 6mph
Humidity: 81% Direction: 120° (ESE)
Pressure: 29.88in Gusts: 0mph
Raw Report DataKMKE 271552Z 12005KT 10SM BKN016 OVC023 23/19 A2988 RMK AO2 SLP115 OCNL LTG DSNT SE T02280194
Traffic Incident Summary
Active as of:
Severity:
Category:
InformationThere was an issue retrieving the traffic information for this location. Please try a different location or try again shortly.
Advertisements
Track Severe Weather on mobile